createdAt,value
2018-06-11T00:01:53.468Z,18.60
2018-06-11T00:04:21.791Z,18.10
2018-06-11T00:06:50.131Z,17.33
2018-06-11T00:09:18.483Z,17.43
2018-06-11T00:11:46.832Z,18.23
2018-06-11T00:14:15.152Z,19.73
2018-06-11T00:16:43.491Z,16.10
2018-06-11T00:19:11.815Z,16.13
2018-06-11T00:21:40.159Z,15.63
2018-06-11T00:24:08.480Z,14.57
2018-06-11T00:26:36.834Z,15.50
2018-06-11T00:29:05.160Z,16.63
2018-06-11T00:31:33.509Z,15.33
2018-06-11T00:34:02.043Z,14.53
2018-06-11T00:36:30.397Z,14.63
2018-06-11T00:38:58.707Z,16.67
2018-06-11T00:41:27.047Z,13.40
2018-06-11T00:43:55.364Z,13.07
2018-06-11T00:46:23.451Z,12.60
2018-06-11T00:48:51.819Z,15.73
2018-06-11T00:51:20.173Z,15.53
2018-06-11T00:53:48.502Z,12.67
2018-06-11T00:56:16.848Z,13.53
2018-06-11T00:58:45.198Z,13.30
2018-06-11T01:01:13.543Z,13.53
2018-06-11T01:03:46.835Z,14.30
2018-06-11T01:06:15.168Z,11.60
2018-06-11T01:08:43.727Z,13.40
2018-06-11T01:11:12.091Z,15.53
2018-06-11T01:13:40.472Z,12.27
2018-06-11T01:16:08.836Z,10.83
2018-06-11T01:18:37.223Z,11.57
2018-06-11T01:21:05.595Z,11.47
2018-06-11T01:23:34.077Z,10.13
2018-06-11T01:26:02.524Z,11.33
2018-06-11T01:28:30.623Z,10.47
2018-06-11T01:30:58.966Z,12.93
2018-06-11T01:33:27.360Z,10.73
2018-06-11T01:35:55.431Z,9.37
2018-06-11T01:38:23.805Z,11.57
2018-06-11T01:40:51.887Z,9.00
2018-06-11T01:43:19.987Z,9.70
2018-06-11T01:45:48.337Z,9.23
2018-06-11T01:48:16.436Z,9.27
2018-06-11T01:50:44.780Z,9.97
2018-06-11T01:53:13.151Z,9.00
2018-06-11T01:55:41.479Z,10.27
2018-06-11T01:58:09.843Z,10.03
2018-06-11T02:00:38.195Z,11.00
2018-06-11T02:03:06.303Z,8.53
2018-06-11T02:05:34.640Z,8.93
2018-06-11T02:08:03.101Z,9.93
2018-06-11T02:10:31.453Z,8.93
2018-06-11T02:12:59.816Z,11.20
2018-06-11T02:15:28.155Z,9.73
2018-06-11T02:17:56.544Z,10.70
2018-06-11T02:20:24.615Z,10.97
2018-06-11T02:22:52.976Z,9.33
2018-06-11T02:25:21.333Z,12.77
2018-06-11T02:27:49.708Z,13.60
2018-06-11T02:30:18.049Z,12.07
2018-06-11T02:32:46.438Z,11.73
2018-06-11T02:35:14.788Z,11.83
2018-06-11T02:37:43.144Z,10.87
2018-06-11T02:40:11.535Z,12.70
2018-06-11T02:42:39.879Z,11.67
2018-06-11T02:45:08.258Z,11.03
2018-06-11T02:47:36.604Z,10.63
2018-06-11T02:50:04.971Z,10.00
2018-06-11T02:52:33.319Z,11.30
2018-06-11T02:55:01.704Z,11.67
2018-06-11T02:57:30.096Z,10.30
2018-06-11T02:59:58.470Z,9.70
2018-06-11T03:02:26.812Z,10.37
2018-06-11T03:04:55.192Z,10.70
2018-06-11T03:07:23.564Z,11.03
2018-06-11T03:09:51.948Z,12.07
2018-06-11T03:12:20.300Z,10.60
2018-06-11T03:14:48.670Z,12.63
2018-06-11T03:17:17.010Z,11.93
2018-06-11T03:19:45.388Z,12.50
2018-06-11T03:22:13.735Z,10.17
2018-06-11T03:24:42.115Z,10.03
2018-06-11T03:27:10.456Z,11.00
2018-06-11T03:29:38.827Z,12.27
2018-06-11T03:32:07.168Z,9.17
2018-06-11T03:34:35.561Z,10.63
2018-06-11T03:37:03.945Z,13.57
2018-06-11T03:39:32.297Z,10.03
2018-06-11T03:42:00.677Z,9.83
2018-06-11T03:44:29.012Z,9.83
2018-06-11T03:46:57.385Z,9.23
2018-06-11T03:49:25.719Z,12.43
2018-06-11T03:51:54.083Z,10.43
2018-06-11T03:54:22.431Z,11.40
2018-06-11T03:56:50.527Z,8.70
2018-06-11T03:59:18.878Z,14.43
2018-06-11T04:01:47.251Z,10.70
2018-06-11T04:04:15.667Z,10.30
2018-06-11T04:06:44.100Z,10.03
2018-06-11T04:09:12.475Z,8.97
2018-06-11T04:11:40.848Z,11.33
2018-06-11T04:14:09.185Z,9.80
2018-06-11T04:16:37.561Z,8.67
2018-06-11T04:19:06.237Z,10.07
2018-06-11T04:21:34.611Z,8.07
2018-06-11T04:24:02.959Z,10.10
2018-06-11T04:26:31.327Z,7.27
2018-06-11T04:28:59.679Z,7.07
2018-06-11T04:31:28.052Z,6.57
2018-06-11T04:33:56.390Z,6.63
2018-06-11T04:36:24.748Z,8.60
2018-06-11T04:38:53.094Z,7.80
2018-06-11T04:41:21.464Z,6.63
2018-06-11T04:43:49.804Z,8.30
2018-06-11T04:46:18.181Z,6.80
2018-06-11T04:48:46.516Z,6.37
2018-06-11T04:51:14.888Z,5.97
2018-06-11T04:53:43.235Z,5.83
2018-06-11T04:56:11.600Z,8.97
2018-06-11T04:58:39.935Z,7.00
2018-06-11T05:01:08.283Z,8.17
2018-06-11T05:03:36.647Z,7.13
2018-06-11T05:06:04.987Z,5.50
2018-06-11T05:08:33.387Z,7.07
2018-06-11T05:11:01.792Z,8.80
2018-06-11T05:13:30.182Z,6.87
2018-06-11T05:15:58.268Z,7.53
2018-06-11T05:18:26.639Z,7.60
2018-06-11T05:20:54.727Z,7.90
2018-06-11T05:23:23.125Z,7.87
2018-06-11T05:25:52.392Z,11.17
2018-06-11T05:28:21.676Z,7.47
2018-06-11T05:30:50.348Z,8.27
2018-06-11T05:33:19.096Z,9.37
2018-06-11T05:35:47.459Z,9.57
2018-06-11T05:38:15.856Z,8.40
2018-06-11T05:40:44.226Z,8.83
2018-06-11T05:43:12.605Z,8.67
2018-06-11T05:45:40.956Z,8.57
2018-06-11T05:48:09.080Z,7.47
2018-06-11T05:50:37.425Z,8.30
2018-06-11T05:53:05.856Z,8.23
2018-06-11T05:55:34.239Z,9.53
2018-06-11T05:58:03.061Z,10.03
2018-06-11T06:00:31.140Z,9.20
2018-06-11T06:02:59.545Z,6.73
2018-06-11T06:05:27.910Z,7.60
2018-06-11T06:07:56.311Z,7.53
2018-06-11T06:10:24.674Z,8.30
2018-06-11T06:12:53.045Z,8.00
2018-06-11T06:15:21.407Z,10.53
2018-06-11T06:17:49.885Z,10.30
2018-06-11T06:20:18.249Z,14.47
2018-06-11T06:22:46.685Z,13.33
2018-06-11T06:25:15.082Z,12.73
2018-06-11T06:27:43.486Z,12.67
2018-06-11T06:30:11.849Z,13.73
2018-06-11T06:32:40.252Z,14.30
2018-06-11T06:35:08.609Z,15.37
2018-06-11T06:37:36.980Z,14.73
2018-06-11T06:40:05.446Z,16.10
2018-06-11T06:42:35.658Z,14.70
2018-06-11T06:45:04.556Z,14.00
2018-06-11T06:47:32.939Z,17.17
2018-06-11T06:50:01.336Z,16.53
2018-06-11T06:52:29.745Z,17.43
2018-06-11T06:54:58.137Z,17.63
2018-06-11T06:57:26.227Z,17.90
2018-06-11T06:59:54.713Z,18.03
2018-06-11T07:02:23.103Z,16.47
2018-06-11T07:04:51.494Z,16.87
2018-06-11T07:07:19.949Z,14.37
2018-06-11T07:09:48.340Z,16.93
2018-06-11T07:12:16.861Z,20.03
2018-06-11T07:14:45.248Z,14.93
2018-06-11T07:17:13.612Z,14.80
2018-06-11T07:19:42.008Z,15.77
2018-06-11T07:22:10.436Z,15.23
2018-06-11T07:24:38.812Z,15.80
2018-06-11T07:27:07.200Z,15.13
2018-06-11T07:29:35.547Z,14.23
2018-06-11T07:32:03.973Z,15.10
2018-06-11T07:34:32.358Z,12.60
2018-06-11T07:37:00.729Z,14.30
2018-06-11T07:39:29.129Z,14.47
2018-06-11T07:41:57.525Z,12.63
2018-06-11T07:44:25.932Z,10.23
2018-06-11T07:46:54.335Z,12.10
2018-06-11T07:49:22.677Z,11.07
2018-06-11T07:51:51.054Z,11.53
2018-06-11T07:54:19.404Z,8.77
2018-06-11T07:56:47.788Z,7.87
2018-06-11T07:59:16.132Z,8.43
2018-06-11T08:01:44.513Z,8.60
2018-06-11T08:04:12.856Z,12.57
2018-06-11T08:06:41.231Z,10.37
2018-06-11T08:09:09.616Z,9.73
2018-06-11T08:11:38.012Z,8.33
2018-06-11T08:14:06.352Z,9.13
2018-06-11T08:16:34.713Z,9.33
2018-06-11T08:19:03.061Z,9.37
2018-06-11T08:21:31.447Z,8.80
2018-06-11T08:23:59.784Z,12.00
2018-06-11T08:26:28.157Z,10.30
2018-06-11T08:28:56.512Z,8.60
2018-06-11T08:31:24.886Z,11.80
2018-06-11T08:33:53.234Z,11.43
2018-06-11T08:36:21.612Z,9.07
2018-06-11T08:38:49.986Z,10.70
2018-06-11T08:41:18.384Z,13.60
2018-06-11T08:43:46.754Z,12.27
2018-06-11T08:46:14.882Z,12.00
2018-06-11T08:48:43.224Z,11.33
2018-06-11T08:51:11.619Z,11.30
2018-06-11T08:53:39.682Z,9.73
2018-06-11T08:56:08.089Z,10.13
2018-06-11T08:58:36.439Z,10.87
2018-06-11T09:01:04.814Z,11.57
2018-06-11T09:03:33.179Z,11.60
2018-06-11T09:06:01.552Z,10.53
2018-06-11T09:08:30.013Z,11.37
2018-06-11T09:10:58.388Z,11.93
2018-06-11T09:13:26.735Z,12.33
2018-06-11T09:15:55.114Z,11.33
2018-06-11T09:18:23.624Z,12.83
2018-06-11T09:20:51.856Z,10.53
2018-06-11T09:23:20.196Z,11.60
2018-06-11T09:25:48.596Z,10.77
2018-06-11T09:28:16.663Z,11.07
2018-06-11T09:30:44.737Z,10.80
2018-06-11T09:33:12.842Z,11.17
2018-06-11T09:35:41.178Z,10.90
2018-06-11T09:38:09.327Z,10.63
2018-06-11T09:40:37.629Z,11.70
2018-06-11T09:43:06.103Z,10.43
2018-06-11T09:45:34.440Z,10.17
2018-06-11T09:48:02.810Z,10.93
2018-06-11T09:50:31.150Z,11.10
2018-06-11T09:52:59.527Z,10.30
2018-06-11T09:55:27.873Z,10.07
2018-06-11T09:57:56.253Z,10.40
2018-06-11T10:00:29.887Z,10.67
2018-06-11T10:02:58.248Z,10.30
2018-06-11T10:05:26.590Z,10.10
2018-06-11T10:07:54.991Z,11.77
2018-06-11T10:10:23.328Z,10.23
2018-06-11T10:12:51.692Z,10.10
2018-06-11T10:15:19.757Z,11.27
2018-06-11T10:17:48.127Z,10.63
2018-06-11T10:20:16.498Z,10.20
2018-06-11T10:22:44.867Z,10.13
2018-06-11T10:25:13.216Z,11.83
2018-06-11T10:27:41.602Z,10.93
2018-06-11T10:30:09.987Z,11.43
2018-06-11T10:32:38.352Z,10.47
2018-06-11T10:35:06.697Z,12.37
2018-06-11T10:37:35.080Z,10.30
2018-06-11T10:40:03.207Z,10.50
2018-06-11T10:42:31.588Z,9.70
2018-06-11T10:44:59.928Z,10.10
2018-06-11T10:47:28.291Z,10.70
2018-06-11T10:49:56.361Z,10.97
2018-06-11T10:52:24.455Z,9.47
2018-06-11T10:54:52.799Z,9.63
2018-06-11T10:57:21.181Z,10.90
2018-06-11T10:59:49.529Z,10.07
2018-06-11T11:02:17.892Z,8.67
2018-06-11T11:04:46.257Z,9.50
2018-06-11T11:07:14.727Z,9.03
2018-06-11T11:09:43.070Z,9.50
2018-06-11T11:12:11.444Z,10.53
2018-06-11T11:14:39.812Z,9.73
2018-06-11T11:17:08.147Z,11.73
2018-06-11T11:19:36.500Z,8.90
2018-06-11T11:22:04.854Z,8.47
2018-06-11T11:24:33.228Z,8.73
2018-06-11T11:27:01.576Z,8.27
2018-06-11T11:29:29.945Z,10.93
2018-06-11T11:31:58.287Z,9.50
2018-06-11T11:34:26.660Z,8.13
2018-06-11T11:36:54.990Z,8.90
2018-06-11T11:39:23.364Z,8.50
2018-06-11T11:41:51.692Z,8.67
2018-06-11T11:44:20.072Z,7.53
2018-06-11T11:46:48.418Z,7.50
2018-06-11T11:49:16.792Z,9.43
2018-06-11T11:51:45.136Z,7.17
2018-06-11T11:54:13.504Z,7.33
2018-06-11T11:56:41.848Z,7.37
2018-06-11T11:59:10.205Z,9.27
2018-06-11T12:01:38.629Z,10.53
2018-06-11T12:04:06.982Z,7.53
2018-06-11T12:06:35.372Z,7.15
2018-06-11T12:09:06.053Z,8.20
2018-06-11T12:11:34.523Z,8.47
2018-06-11T12:14:02.882Z,7.67
2018-06-11T12:16:31.249Z,9.90
2018-06-11T12:19:00.103Z,8.20
2018-06-11T12:21:28.437Z,7.57
2018-06-11T12:23:56.780Z,7.30
2018-06-11T12:26:25.154Z,9.08
2018-06-11T12:28:53.488Z,7.20
2018-06-11T12:31:21.597Z,8.00
2018-06-11T12:33:49.935Z,9.63
2018-06-11T12:36:18.331Z,7.50
2018-06-11T12:38:47.545Z,8.28
2018-06-11T12:41:16.612Z,8.15
2018-06-11T12:43:44.951Z,7.70
2018-06-11T12:46:13.324Z,7.83
2018-06-11T12:48:41.694Z,9.73
2018-06-11T12:51:10.050Z,8.45
2018-06-11T12:53:38.409Z,9.48
2018-06-11T12:56:06.816Z,8.68
2018-06-11T12:58:35.168Z,10.90
2018-06-11T13:01:03.528Z,8.78
2018-06-11T13:03:32.077Z,9.50
2018-06-11T13:06:00.452Z,9.70
2018-06-11T13:08:30.585Z,7.95
2018-06-11T13:10:59.750Z,7.40
2018-06-11T13:13:28.495Z,6.83
2018-06-11T13:15:59.237Z,7.20
2018-06-11T13:18:28.442Z,7.75
2018-06-11T13:20:58.103Z,7.33
2018-06-11T13:23:26.476Z,7.28
2018-06-11T13:25:55.378Z,7.12
2018-06-11T13:28:24.343Z,7.95
2018-06-11T13:30:53.222Z,8.40
2018-06-11T13:33:21.732Z,7.60
2018-06-11T13:35:50.062Z,6.72
2018-06-11T13:38:18.438Z,7.67
2018-06-11T13:40:46.781Z,7.83
2018-06-11T13:43:15.154Z,7.28
2018-06-11T13:45:43.488Z,7.92
2018-06-11T13:48:11.867Z,6.83
2018-06-11T13:50:40.191Z,6.20
2018-06-11T13:53:08.574Z,7.70
2018-06-11T13:55:36.909Z,6.50
2018-06-11T13:58:05.469Z,5.80
2018-06-11T14:00:33.796Z,8.53
2018-06-11T14:03:02.152Z,5.70
2018-06-11T14:05:30.484Z,7.70
2018-06-11T14:07:58.888Z,6.75
2018-06-11T14:10:27.213Z,6.62
2018-06-11T14:12:55.295Z,6.62
2018-06-11T14:15:23.634Z,6.10
2018-06-11T14:17:51.961Z,7.17
2018-06-11T14:20:20.347Z,8.25
2018-06-11T14:22:48.680Z,9.10
2018-06-11T14:25:17.039Z,6.17
2018-06-11T14:27:45.371Z,6.50
2018-06-11T14:30:13.732Z,7.35
2018-06-11T14:32:42.068Z,8.40
2018-06-11T14:35:10.435Z,8.40
2018-06-11T14:37:38.781Z,6.47
2018-06-11T14:40:07.185Z,6.10
2018-06-11T14:42:35.611Z,8.80
2018-06-11T14:45:03.999Z,6.30
2018-06-11T14:47:32.341Z,6.50
2018-06-11T14:50:00.711Z,9.28
2018-06-11T14:52:34.302Z,7.33
2018-06-11T14:55:02.674Z,9.65
2018-06-11T14:57:31.028Z,8.33
2018-06-11T14:59:59.118Z,10.00
2018-06-11T15:02:27.455Z,7.20
2018-06-11T15:04:55.812Z,7.83
2018-06-11T15:07:24.176Z,7.03
2018-06-11T15:09:52.545Z,6.90
2018-06-11T15:12:20.875Z,8.45
2018-06-11T15:14:49.228Z,6.55
2018-06-11T15:17:17.552Z,7.70
2018-06-11T15:19:45.661Z,6.33
2018-06-11T15:22:13.988Z,7.85
2018-06-11T15:24:42.311Z,5.50
2018-06-11T15:27:10.678Z,6.58
2018-06-11T15:29:38.996Z,7.47
2018-06-11T15:32:07.364Z,7.17
2018-06-11T15:34:35.701Z,5.33
2018-06-11T15:37:04.083Z,6.55
2018-06-11T15:39:32.409Z,7.40
2018-06-11T15:42:00.790Z,5.70
2018-06-11T15:44:29.161Z,6.85
2018-06-11T15:46:57.560Z,6.50
2018-06-11T15:49:25.902Z,6.00
2018-06-11T15:51:54.265Z,6.80
2018-06-11T15:54:22.591Z,7.45
2018-06-11T15:56:51.028Z,6.65
2018-06-11T15:59:19.359Z,10.43
2018-06-11T16:01:47.473Z,6.10
2018-06-11T16:04:15.528Z,6.70
2018-06-11T16:06:43.894Z,7.08
2018-06-11T16:09:12.259Z,7.03
2018-06-11T16:11:40.628Z,6.30
2018-06-11T16:14:09.339Z,4.87
2018-06-11T16:16:37.772Z,6.53
2018-06-11T16:19:06.127Z,7.10
2018-06-11T16:21:34.487Z,9.05
2018-06-11T16:24:02.821Z,7.85
2018-06-11T16:26:31.148Z,5.10
2018-06-11T16:28:59.231Z,4.37
2018-06-11T16:31:27.279Z,6.87
2018-06-11T16:33:55.636Z,6.97
2018-06-11T16:36:23.968Z,4.75
2018-06-11T16:38:52.323Z,5.33
2018-06-11T16:41:20.673Z,6.80
2018-06-11T16:43:49.048Z,5.45
2018-06-11T16:46:17.380Z,7.90
2018-06-11T16:48:45.756Z,7.08
2018-06-11T16:51:14.104Z,7.55
2018-06-11T16:53:42.473Z,7.33
2018-06-11T16:56:10.813Z,7.30
2018-06-11T16:58:39.181Z,4.65
2018-06-11T17:01:07.516Z,4.40
2018-06-11T17:03:35.875Z,6.55
2018-06-11T17:06:04.208Z,5.47
2018-06-11T17:08:32.328Z,5.08
2018-06-11T17:11:00.668Z,5.78
2018-06-11T17:13:29.036Z,5.60
2018-06-11T17:15:57.098Z,9.45
2018-06-11T17:18:25.465Z,5.25
2018-06-11T17:20:53.796Z,6.90
2018-06-11T17:23:22.160Z,4.87
2018-06-11T17:25:50.505Z,6.85
2018-06-11T17:28:18.864Z,4.97
2018-06-11T17:30:47.222Z,5.53
2018-06-11T17:33:15.548Z,7.92
2018-06-11T17:35:43.929Z,6.40
2018-06-11T17:38:12.272Z,6.05
2018-06-11T17:40:40.627Z,7.20
2018-06-11T17:43:09.240Z,10.72
2018-06-11T17:45:37.613Z,6.03
2018-06-11T17:48:06.076Z,5.58
2018-06-11T17:50:34.466Z,7.10
2018-06-11T17:53:02.793Z,7.05
2018-06-11T17:55:31.163Z,5.53
2018-06-11T17:57:59.497Z,6.85
2018-06-11T18:00:27.909Z,5.62
2018-06-11T18:02:56.694Z,5.83
2018-06-11T18:05:25.073Z,5.40
2018-06-11T18:07:53.460Z,5.58
2018-06-11T18:10:21.836Z,7.17
2018-06-11T18:12:50.159Z,7.85
2018-06-11T18:15:18.520Z,5.87
2018-06-11T18:17:46.891Z,5.87
2018-06-11T18:20:15.270Z,5.53
2018-06-11T18:22:43.640Z,6.07
2018-06-11T18:25:12.027Z,5.17
2018-06-11T18:27:40.392Z,5.13
2018-06-11T18:30:08.793Z,6.27
2018-06-11T18:32:37.131Z,6.47
2018-06-11T18:35:05.512Z,5.80
2018-06-11T18:37:33.852Z,4.97
2018-06-11T18:40:02.226Z,5.80
2018-06-11T18:42:31.131Z,9.37
2018-06-11T18:44:59.509Z,8.53
2018-06-11T18:47:27.854Z,5.03
2018-06-11T18:49:56.249Z,5.97
2018-06-11T18:52:24.387Z,6.53
2018-06-11T18:54:52.759Z,5.90
2018-06-11T18:57:21.104Z,6.17
2018-06-11T18:59:49.457Z,5.10
2018-06-11T19:02:17.829Z,4.70
2018-06-11T19:04:46.231Z,6.90
2018-06-11T19:07:14.614Z,6.93
2018-06-11T19:09:43.000Z,7.90
2018-06-11T19:12:11.379Z,5.83
2018-06-11T19:14:39.721Z,7.60
2018-06-11T19:17:08.100Z,6.70
2018-06-11T19:19:36.442Z,7.47
2018-06-11T19:22:04.824Z,5.70
2018-06-11T19:24:33.176Z,5.67
2018-06-11T19:27:01.556Z,7.20
2018-06-11T19:29:29.879Z,6.87
2018-06-11T19:31:58.305Z,5.37
2018-06-11T19:34:26.649Z,5.90
2018-06-11T19:36:55.011Z,4.93
2018-06-11T19:39:23.371Z,6.67
2018-06-11T19:41:51.793Z,5.97
2018-06-11T19:44:20.197Z,7.30
2018-06-11T19:46:48.608Z,5.40
2018-06-11T19:49:16.954Z,7.90
2018-06-11T19:51:45.069Z,7.53
2018-06-11T19:54:13.447Z,7.80
2018-06-11T19:56:41.837Z,4.77
2018-06-11T19:59:09.867Z,6.97
2018-06-11T20:01:38.260Z,7.00
2018-06-11T20:04:06.584Z,7.10
2018-06-11T20:06:34.964Z,5.60
2018-06-11T20:09:03.391Z,6.33
2018-06-11T20:11:31.759Z,7.10
2018-06-11T20:14:00.084Z,6.77
2018-06-11T20:16:28.461Z,6.83
2018-06-11T20:18:56.807Z,6.37
2018-06-11T20:21:25.168Z,6.80
2018-06-11T20:23:53.227Z,8.30
2018-06-11T20:26:21.901Z,6.57
2018-06-11T20:28:52.300Z,6.40
2018-06-11T20:31:20.758Z,5.60
2018-06-11T20:33:49.093Z,5.80
2018-06-11T20:36:17.476Z,9.30
2018-06-11T20:38:45.803Z,9.17
2018-06-11T20:41:14.144Z,8.83
2018-06-11T20:43:42.520Z,8.20
2018-06-11T20:46:10.864Z,7.07
2018-06-11T20:48:39.237Z,8.50
2018-06-11T20:51:07.583Z,7.60
2018-06-11T20:53:35.944Z,9.27
2018-06-11T20:56:04.012Z,7.10
2018-06-11T20:58:32.383Z,6.20
2018-06-11T21:01:00.728Z,6.23
2018-06-11T21:03:29.186Z,6.67
2018-06-11T21:05:57.448Z,6.87
2018-06-11T21:08:25.852Z,6.43
2018-06-11T21:10:56.843Z,8.13
2018-06-11T21:13:28.215Z,7.80
2018-06-11T21:15:59.263Z,6.20
2018-06-11T21:18:30.002Z,7.73
2018-06-11T21:20:59.922Z,8.70
2018-06-11T21:23:28.435Z,8.37
2018-06-11T21:25:56.828Z,8.33
2018-06-11T21:28:25.202Z,10.00
2018-06-11T21:30:53.523Z,9.00
2018-06-11T21:33:21.884Z,9.77
2018-06-11T21:35:50.212Z,9.17
2018-06-11T21:38:18.561Z,9.27
2018-06-11T21:40:46.880Z,7.90
2018-06-11T21:43:15.231Z,9.53
2018-06-11T21:45:44.403Z,7.37
2018-06-11T21:48:12.859Z,11.40
2018-06-11T21:50:41.191Z,8.70
2018-06-11T21:53:09.546Z,9.90
2018-06-11T21:55:37.871Z,7.30
2018-06-11T21:58:06.236Z,8.53
2018-06-11T22:00:34.620Z,9.63
2018-06-11T22:03:02.993Z,7.37
2018-06-11T22:05:31.329Z,9.20
2018-06-11T22:07:59.720Z,9.67
2018-06-11T22:10:28.050Z,8.73
2018-06-11T22:12:56.439Z,8.43
2018-06-11T22:15:24.775Z,12.50
2018-06-11T22:17:53.144Z,10.37
2018-06-11T22:20:21.480Z,8.13
2018-06-11T22:22:49.843Z,10.53
2018-06-11T22:25:18.181Z,12.13
2018-06-11T22:27:46.275Z,9.73
2018-06-11T22:30:14.620Z,8.70
2018-06-11T22:32:42.960Z,9.40
2018-06-11T22:35:11.331Z,10.00
2018-06-11T22:37:39.671Z,7.80
2018-06-11T22:40:07.756Z,9.07
2018-06-11T22:42:35.810Z,9.83
2018-06-11T22:45:04.192Z,9.77
2018-06-11T22:47:32.521Z,14.03
2018-06-11T22:50:00.879Z,12.03
2018-06-11T22:52:29.207Z,9.97
2018-06-11T22:54:57.575Z,11.20
2018-06-11T22:57:25.916Z,9.23
2018-06-11T22:59:54.279Z,10.13
2018-06-11T23:02:22.338Z,10.17
2018-06-11T23:04:50.701Z,12.57
2018-06-11T23:07:19.071Z,11.50
2018-06-11T23:09:47.439Z,11.73
2018-06-11T23:12:15.759Z,11.97
2018-06-11T23:14:44.115Z,9.77
2018-06-11T23:17:12.465Z,10.27
2018-06-11T23:19:40.828Z,12.83
2018-06-11T23:22:09.156Z,12.00
2018-06-11T23:24:37.539Z,12.17
2018-06-11T23:27:05.868Z,11.57
2018-06-11T23:29:34.262Z,10.60
2018-06-11T23:32:02.840Z,12.10
2018-06-11T23:34:31.249Z,12.07
2018-06-11T23:36:59.593Z,11.50
2018-06-11T23:39:27.986Z,11.37
2018-06-11T23:41:56.311Z,9.60
2018-06-11T23:44:24.403Z,11.53
2018-06-11T23:46:52.756Z,13.80
2018-06-11T23:49:21.108Z,12.07
2018-06-11T23:51:49.439Z,10.13
2018-06-11T23:54:17.804Z,11.67
2018-06-11T23:56:46.146Z,10.03
2018-06-11T23:59:14.511Z,10.33
